Terminal Aerodrome Forecast
Issued by NWS Tuscon, AZ

Home | Current Version | Previous Version | Text Only | Print | Product List | Glossary On
Versions: 1 2 3 4 5 6 7 8 9 10 11 12 13 14 15 16 17
758
FTUS45 KTWC 241741
TAFDUG
TAF
KDUG 241741Z 2418/2518 22010KT P6SM FEW120
     FM242100 32011G17KT P6SM VCSH SCT090 SCT120
     FM250000 34012KT P6SM SCT080 BKN150
     FM250700 VRB04KT P6SM SCT100 SCT180=

USA.gov is the U.S. government's official web portal to all federal, state and local government web resources and services.